createdAt,value
2018-12-15T00:00:00.120Z,0.20
2018-12-15T00:02:27.648Z,0.20
2018-12-15T00:04:55.184Z,0.20
2018-12-15T00:07:22.713Z,0.20
2018-12-15T00:09:50.240Z,0.20
2018-12-15T00:12:17.785Z,0.30
2018-12-15T00:14:45.558Z,0.30
2018-12-15T00:17:13.125Z,0.30
2018-12-15T00:19:40.657Z,0.30
2018-12-15T00:22:08.174Z,0.30
2018-12-15T00:24:35.697Z,0.30
2018-12-15T00:27:03.210Z,0.30
2018-12-15T00:29:30.875Z,0.30
2018-12-15T00:31:58.385Z,0.30
2018-12-15T00:34:25.929Z,0.30
2018-12-15T00:36:53.442Z,0.30
2018-12-15T00:39:20.971Z,0.40
2018-12-15T00:41:48.502Z,0.30
2018-12-15T00:44:16.031Z,0.30
2018-12-15T00:46:43.549Z,0.30
2018-12-15T00:49:11.069Z,0.30
2018-12-15T00:51:38.597Z,0.20
2018-12-15T00:54:06.110Z,0.20
2018-12-15T00:56:33.630Z,0.20
2018-12-15T00:59:01.157Z,0.20
2018-12-15T01:01:28.768Z,0.20
2018-12-15T01:03:56.353Z,0.20
2018-12-15T01:06:23.976Z,0.20
2018-12-15T01:08:51.521Z,0.10
2018-12-15T01:11:19.063Z,0.10
2018-12-15T01:13:46.670Z,0.10
2018-12-15T01:16:14.183Z,0.10
2018-12-15T01:18:41.705Z,0.10
2018-12-15T01:21:09.217Z,0.20
2018-12-15T01:23:36.743Z,0.10
2018-12-15T01:26:04.294Z,0.20
2018-12-15T01:28:31.826Z,0.20
2018-12-15T01:30:59.372Z,0.20
2018-12-15T01:33:26.916Z,0.20
2018-12-15T01:35:54.435Z,0.20
2018-12-15T01:38:21.973Z,0.20
2018-12-15T01:40:49.477Z,0.20
2018-12-15T01:43:17.011Z,0.20
2018-12-15T01:45:44.557Z,0.20
2018-12-15T01:48:12.093Z,0.30
2018-12-15T01:50:39.636Z,0.30
2018-12-15T01:53:07.146Z,0.20
2018-12-15T01:55:34.675Z,0.20
2018-12-15T01:58:02.181Z,0.20
2018-12-15T02:00:29.724Z,0.20
2018-12-15T02:02:57.257Z,0.20
2018-12-15T02:05:24.783Z,0.20
2018-12-15T02:07:52.300Z,0.30
2018-12-15T02:10:19.830Z,0.20
2018-12-15T02:12:47.341Z,0.20
2018-12-15T02:15:14.889Z,0.20
2018-12-15T02:17:42.437Z,0.20
2018-12-15T02:20:10.064Z,0.10
2018-12-15T02:22:37.616Z,0.20
2018-12-15T02:25:05.226Z,0.20
2018-12-15T02:27:32.792Z,0.20
2018-12-15T02:30:00.331Z,0.20
2018-12-15T02:32:27.872Z,0.30
2018-12-15T02:34:55.398Z,0.20
2018-12-15T02:37:22.957Z,0.20
2018-12-15T02:39:50.465Z,0.10
2018-12-15T02:42:17.973Z,0.10
2018-12-15T02:44:45.501Z,0.00
2018-12-15T02:47:13.009Z,0.00
2018-12-15T02:49:40.541Z,0.00
2018-12-15T02:52:08.077Z,0.10
2018-12-15T02:54:35.585Z,0.10
2018-12-15T02:57:03.134Z,0.00
2018-12-15T02:59:30.638Z,0.00
2018-12-15T03:01:58.176Z,0.10
2018-12-15T03:04:25.684Z,0.10
2018-12-15T03:06:53.215Z,0.20
2018-12-15T03:09:20.718Z,0.20
2018-12-15T03:11:48.276Z,0.20
2018-12-15T03:14:15.795Z,0.10
2018-12-15T03:17:02.373Z,0.10
2018-12-15T03:19:29.876Z,0.10
2018-12-15T03:21:57.397Z,0.00
2018-12-15T03:24:24.944Z,0.00
2018-12-15T03:26:52.463Z,0.00
2018-12-15T03:29:19.969Z,0.00
2018-12-15T03:31:47.478Z,0.00
2018-12-15T03:34:15.018Z,0.00
2018-12-15T03:36:42.525Z,0.00
2018-12-15T03:39:10.040Z,0.00
2018-12-15T03:41:37.543Z,0.00
2018-12-15T03:44:05.056Z,0.00
2018-12-15T03:46:32.559Z,0.00
2018-12-15T03:49:00.066Z,0.10
2018-12-15T03:51:27.599Z,0.10
2018-12-15T03:53:55.140Z,0.10
2018-12-15T03:56:22.651Z,0.10
2018-12-15T03:58:50.148Z,0.00
2018-12-15T04:01:17.655Z,0.00
2018-12-15T04:03:45.165Z,0.00
2018-12-15T04:06:12.708Z,0.00
2018-12-15T04:08:40.234Z,0.00
2018-12-15T04:11:07.776Z,0.00
2018-12-15T04:13:35.279Z,0.00
2018-12-15T04:16:02.798Z,0.00
2018-12-15T04:18:30.331Z,-0.10
2018-12-15T04:20:57.849Z,-0.10
2018-12-15T04:23:25.344Z,0.00
2018-12-15T04:25:52.867Z,0.00
2018-12-15T04:28:20.391Z,0.00
2018-12-15T04:30:47.892Z,0.00
2018-12-15T04:33:15.413Z,-0.10
2018-12-15T04:35:42.936Z,-0.10
2018-12-15T04:38:10.460Z,-0.20
2018-12-15T04:40:38.358Z,-0.10
2018-12-15T04:43:05.903Z,0.00
2018-12-15T04:45:34.261Z,0.00
2018-12-15T04:48:01.770Z,-0.10
2018-12-15T04:50:29.307Z,-0.10
2018-12-15T04:52:56.853Z,-0.10
2018-12-15T04:55:24.398Z,0.00
2018-12-15T04:57:51.948Z,-0.10
2018-12-15T05:00:19.458Z,-0.10
2018-12-15T05:02:46.995Z,-0.10
2018-12-15T05:05:14.523Z,-0.20
2018-12-15T05:07:42.041Z,-0.20
2018-12-15T05:10:09.597Z,-0.10
2018-12-15T05:12:37.104Z,-0.20
2018-12-15T05:15:04.775Z,-0.10
2018-12-15T05:17:32.289Z,-0.10
2018-12-15T05:19:59.819Z,-0.20
2018-12-15T05:22:27.329Z,-0.20
2018-12-15T05:24:54.985Z,-0.20
2018-12-15T05:27:22.781Z,-0.10
2018-12-15T05:29:50.312Z,-0.20
2018-12-15T05:32:17.833Z,-0.20
2018-12-15T05:34:45.336Z,-0.20
2018-12-15T05:37:12.859Z,-0.20
2018-12-15T05:39:40.395Z,-0.20
2018-12-15T05:42:07.914Z,-0.20
2018-12-15T05:44:35.440Z,-0.10
2018-12-15T05:47:03.056Z,-0.10
2018-12-15T05:49:30.566Z,-0.10
2018-12-15T05:51:58.119Z,-0.10
2018-12-15T05:54:25.643Z,-0.10
2018-12-15T05:56:53.167Z,-0.10
2018-12-15T05:59:20.684Z,-0.10
2018-12-15T06:01:48.213Z,-0.10
2018-12-15T06:04:15.751Z,-0.10
2018-12-15T06:06:43.265Z,-0.20
2018-12-15T06:09:10.789Z,-0.20
2018-12-15T06:11:38.300Z,-0.20
2018-12-15T06:14:05.820Z,-0.20
2018-12-15T06:16:33.365Z,-0.20
2018-12-15T06:19:00.896Z,-0.20
2018-12-15T06:21:28.432Z,-0.20
2018-12-15T06:23:55.946Z,-0.20
2018-12-15T06:26:23.464Z,-0.20
2018-12-15T06:28:50.964Z,-0.20
2018-12-15T06:31:18.492Z,-0.20
2018-12-15T06:33:46.001Z,-0.20
2018-12-15T06:36:13.532Z,-0.20
2018-12-15T06:38:41.074Z,-0.20
2018-12-15T06:41:08.598Z,-0.10
2018-12-15T06:43:36.597Z,-0.10
2018-12-15T06:46:04.400Z,-0.10
2018-12-15T06:48:37.997Z,-0.10
2018-12-15T06:51:01.464Z,-0.10
2018-12-15T06:53:29.011Z,-0.10
2018-12-15T06:55:56.513Z,0.00
2018-12-15T06:58:24.017Z,0.00
2018-12-15T07:00:51.532Z,0.00
2018-12-15T07:03:19.042Z,-0.10
2018-12-15T07:05:46.569Z,-0.10
2018-12-15T07:08:14.072Z,-0.10
2018-12-15T07:10:41.659Z,-0.10
2018-12-15T07:13:09.243Z,-0.10
2018-12-15T07:15:36.767Z,-0.10
2018-12-15T07:18:04.296Z,-0.10
2018-12-15T07:20:31.836Z,-0.10
2018-12-15T07:22:59.359Z,0.00
2018-12-15T07:25:26.880Z,0.00
2018-12-15T07:27:54.425Z,0.10
2018-12-15T07:30:22.288Z,0.10
2018-12-15T07:32:49.817Z,0.00
2018-12-15T07:35:17.321Z,0.00
2018-12-15T07:37:44.855Z,0.10
2018-12-15T07:40:12.357Z,0.00
2018-12-15T07:42:39.897Z,0.00
2018-12-15T07:45:07.568Z,0.00
2018-12-15T07:47:35.092Z,-0.10
2018-12-15T07:50:02.749Z,0.00
2018-12-15T07:52:30.275Z,-0.10
2018-12-15T07:54:57.815Z,-0.10
2018-12-15T07:57:25.339Z,-0.10
2018-12-15T07:59:52.857Z,-0.10
2018-12-15T08:02:20.480Z,-0.10
2018-12-15T08:04:47.997Z,0.00
2018-12-15T08:07:15.604Z,0.00
2018-12-15T08:09:43.131Z,0.10
2018-12-15T08:12:16.326Z,0.00
2018-12-15T08:14:43.837Z,0.00
2018-12-15T08:17:11.484Z,0.10
2018-12-15T08:19:39.024Z,0.10
2018-12-15T08:22:06.563Z,0.10
2018-12-15T08:24:34.072Z,0.20
2018-12-15T08:27:01.599Z,0.20
2018-12-15T08:29:29.119Z,0.20
2018-12-15T08:31:56.644Z,0.10
2018-12-15T08:34:24.183Z,0.10
2018-12-15T08:36:51.689Z,0.10
2018-12-15T08:39:19.237Z,0.10
2018-12-15T08:41:46.740Z,0.10
2018-12-15T08:44:14.264Z,0.10
2018-12-15T08:46:41.800Z,0.10
2018-12-15T08:49:09.305Z,0.10
2018-12-15T08:51:36.824Z,0.10
2018-12-15T08:54:04.320Z,0.20
2018-12-15T08:56:31.849Z,0.10
2018-12-15T08:58:59.367Z,0.10
2018-12-15T09:01:26.906Z,0.20
2018-12-15T09:03:54.455Z,0.20
2018-12-15T09:06:21.960Z,0.20
2018-12-15T09:08:49.478Z,0.30
2018-12-15T09:11:16.976Z,0.30
2018-12-15T09:13:44.492Z,0.30
2018-12-15T09:16:12.001Z,0.30
2018-12-15T09:18:39.535Z,0.30
2018-12-15T09:21:07.132Z,0.30
2018-12-15T09:23:34.663Z,0.30
2018-12-15T09:26:02.183Z,0.30
2018-12-15T09:28:29.696Z,0.30
2018-12-15T09:30:57.197Z,0.30
2018-12-15T09:33:24.708Z,0.30
2018-12-15T09:35:52.227Z,0.40
2018-12-15T09:38:19.740Z,0.40
2018-12-15T09:40:47.257Z,0.40
2018-12-15T09:43:14.775Z,0.50
2018-12-15T09:45:42.272Z,0.50
2018-12-15T09:48:09.791Z,0.60
2018-12-15T09:50:37.316Z,0.60
2018-12-15T09:53:04.909Z,0.50
2018-12-15T09:55:32.427Z,0.50
2018-12-15T09:57:59.968Z,0.50
2018-12-15T10:00:27.474Z,0.50
2018-12-15T10:02:55.019Z,0.50
2018-12-15T10:05:22.696Z,0.60
2018-12-15T10:07:50.220Z,0.60
2018-12-15T10:10:17.756Z,0.70
2018-12-15T10:12:45.302Z,0.70
2018-12-15T10:15:12.924Z,0.70
2018-12-15T10:17:40.429Z,0.70
2018-12-15T10:20:08.044Z,0.70
2018-12-15T10:22:35.543Z,0.70
2018-12-15T10:25:03.507Z,0.60
2018-12-15T10:27:31.024Z,0.60
2018-12-15T10:30:04.368Z,0.70
2018-12-15T10:32:37.568Z,0.60
2018-12-15T10:35:05.849Z,0.60
2018-12-15T10:37:33.371Z,0.60
2018-12-15T10:40:00.906Z,0.60
2018-12-15T10:42:28.429Z,0.60
2018-12-15T10:44:55.944Z,0.60
2018-12-15T10:47:23.513Z,0.70
2018-12-15T10:49:51.116Z,0.70
2018-12-15T10:52:18.621Z,0.70
2018-12-15T10:54:46.144Z,0.70
2018-12-15T10:57:13.679Z,0.70
2018-12-15T10:59:41.198Z,0.80
2018-12-15T11:02:10.022Z,0.80
2018-12-15T11:04:37.727Z,0.70
2018-12-15T11:07:05.238Z,0.70
2018-12-15T11:09:32.810Z,0.70
2018-12-15T11:12:00.855Z,0.70
2018-12-15T11:14:28.369Z,0.70
2018-12-15T11:16:55.907Z,0.70
2018-12-15T11:19:23.409Z,0.70
2018-12-15T11:21:50.922Z,0.70
2018-12-15T11:24:18.453Z,0.80
2018-12-15T11:26:45.986Z,0.80
2018-12-15T11:29:13.511Z,0.80
2018-12-15T11:31:41.048Z,0.80
2018-12-15T11:34:08.553Z,0.80
2018-12-15T11:36:36.955Z,0.80
2018-12-15T11:39:06.774Z,0.90
2018-12-15T11:41:34.331Z,0.80
2018-12-15T11:44:01.863Z,0.80
2018-12-15T11:46:29.372Z,0.80
2018-12-15T11:48:56.901Z,0.80
2018-12-15T11:51:24.400Z,0.80
2018-12-15T11:53:52.952Z,0.80
2018-12-15T11:56:20.480Z,0.80
2018-12-15T11:58:48.032Z,0.80
2018-12-15T12:01:15.537Z,0.80
2018-12-15T12:03:43.069Z,0.80
2018-12-15T12:06:10.603Z,0.80
2018-12-15T12:08:38.116Z,0.80
2018-12-15T12:11:05.633Z,0.80
2018-12-15T12:13:33.224Z,0.80
2018-12-15T12:16:00.766Z,0.70
2018-12-15T12:18:28.320Z,0.70
2018-12-15T12:20:55.908Z,0.80
2018-12-15T12:23:23.423Z,0.70
2018-12-15T12:25:50.959Z,0.70
2018-12-15T12:28:18.473Z,0.70
2018-12-15T12:30:45.985Z,0.70
2018-12-15T12:33:13.603Z,0.70
2018-12-15T12:35:41.128Z,0.70
2018-12-15T12:38:08.820Z,0.80
2018-12-15T12:40:36.338Z,0.80
2018-12-15T12:43:03.939Z,0.80
2018-12-15T12:45:31.451Z,0.80
2018-12-15T12:47:58.952Z,0.80
2018-12-15T12:50:26.506Z,0.80
2018-12-15T12:52:54.010Z,0.80
2018-12-15T12:55:21.552Z,0.80
2018-12-15T12:57:49.076Z,0.80
2018-12-15T13:00:16.591Z,0.80
2018-12-15T13:02:44.097Z,0.80
2018-12-15T13:05:11.644Z,0.80
2018-12-15T13:07:39.153Z,0.80
2018-12-15T13:10:06.844Z,0.80
2018-12-15T13:12:34.355Z,0.80
2018-12-15T13:15:01.885Z,0.80
2018-12-15T13:17:29.530Z,0.80
2018-12-15T13:20:03.419Z,0.80
2018-12-15T13:22:26.588Z,0.80
2018-12-15T13:24:54.132Z,0.90
2018-12-15T13:27:21.632Z,0.80
2018-12-15T13:29:49.260Z,0.80
2018-12-15T13:32:16.779Z,0.90
2018-12-15T13:34:44.296Z,0.80
2018-12-15T13:37:11.885Z,0.80
2018-12-15T13:39:39.431Z,0.80
2018-12-15T13:42:06.929Z,0.80
2018-12-15T13:44:34.430Z,0.80
2018-12-15T13:47:01.966Z,0.80
2018-12-15T13:49:29.469Z,0.80
2018-12-15T13:51:56.999Z,0.80
2018-12-15T13:54:24.505Z,0.80
2018-12-15T13:56:52.392Z,0.90
2018-12-15T13:59:19.893Z,0.90
2018-12-15T14:01:47.387Z,0.90
2018-12-15T14:04:14.946Z,0.90
2018-12-15T14:06:42.453Z,0.90
2018-12-15T14:09:10.406Z,0.90
2018-12-15T14:11:37.969Z,0.80
2018-12-15T14:14:05.566Z,0.80
2018-12-15T14:16:33.103Z,0.80
2018-12-15T14:19:00.617Z,0.80
2018-12-15T14:21:28.124Z,0.80
2018-12-15T14:23:55.620Z,0.90
2018-12-15T14:26:23.155Z,0.90
2018-12-15T14:28:50.666Z,0.90
2018-12-15T14:31:18.204Z,0.90
2018-12-15T14:33:45.713Z,0.80
2018-12-15T14:36:13.247Z,0.80
2018-12-15T14:38:40.772Z,0.80
2018-12-15T14:41:08.292Z,0.80
2018-12-15T14:43:35.793Z,0.70
2018-12-15T14:46:03.337Z,0.70
2018-12-15T14:48:30.842Z,0.70
2018-12-15T14:50:58.388Z,0.70
2018-12-15T14:53:25.913Z,0.70
2018-12-15T14:55:53.453Z,0.70
2018-12-15T14:58:20.962Z,0.70
2018-12-15T15:00:48.500Z,0.80
2018-12-15T15:03:16.005Z,0.80
2018-12-15T15:05:43.535Z,0.70
2018-12-15T15:08:11.056Z,0.70
2018-12-15T15:10:38.576Z,0.70
2018-12-15T15:13:06.143Z,0.70
2018-12-15T15:15:33.640Z,0.70
2018-12-15T15:18:01.188Z,0.70
2018-12-15T15:20:29.937Z,0.70
2018-12-15T15:22:57.670Z,0.80
2018-12-15T15:25:25.191Z,0.70
2018-12-15T15:27:52.735Z,0.70
2018-12-15T15:30:20.260Z,0.60
2018-12-15T15:32:47.770Z,0.60
2018-12-15T15:35:15.314Z,0.50
2018-12-15T15:37:42.826Z,0.50
2018-12-15T15:40:10.324Z,0.50
2018-12-15T15:42:37.841Z,0.50
2018-12-15T15:45:05.656Z,0.60
2018-12-15T15:47:33.185Z,0.60
2018-12-15T15:50:00.696Z,0.60
2018-12-15T15:52:28.201Z,0.60
2018-12-15T15:54:55.744Z,0.60
2018-12-15T15:57:23.249Z,0.60
2018-12-15T15:59:50.788Z,0.50
2018-12-15T16:02:18.310Z,0.50
2018-12-15T16:04:45.840Z,0.50
2018-12-15T16:07:13.366Z,0.40
2018-12-15T16:09:44.872Z,0.40
2018-12-15T16:12:10.456Z,0.40
2018-12-15T16:14:37.980Z,0.40
2018-12-15T16:17:05.528Z,0.50
2018-12-15T16:19:33.050Z,0.40
2018-12-15T16:22:00.588Z,0.50
2018-12-15T16:24:28.107Z,0.50
2018-12-15T16:26:55.647Z,0.50
2018-12-15T16:29:23.172Z,0.40
2018-12-15T16:31:50.702Z,0.40
2018-12-15T16:34:18.225Z,0.40
2018-12-15T16:36:45.730Z,0.40
2018-12-15T16:39:13.263Z,0.40
2018-12-15T16:41:42.433Z,0.40
2018-12-15T16:44:10.163Z,0.40
2018-12-15T16:46:37.680Z,0.40
2018-12-15T16:49:06.082Z,0.40
2018-12-15T16:51:33.918Z,0.40
2018-12-15T16:54:01.440Z,0.40
2018-12-15T16:56:28.961Z,0.30
2018-12-15T16:58:56.461Z,0.30
2018-12-15T17:01:23.974Z,0.30
2018-12-15T17:03:51.495Z,0.40
2018-12-15T17:06:19.009Z,0.40
2018-12-15T17:08:46.527Z,0.50
2018-12-15T17:11:14.063Z,0.50
2018-12-15T17:13:41.593Z,0.50
2018-12-15T17:16:09.112Z,0.50
2018-12-15T17:18:36.622Z,0.50
2018-12-15T17:21:04.207Z,0.50
2018-12-15T17:23:31.725Z,0.50
2018-12-15T17:25:59.220Z,0.60
2018-12-15T17:28:26.756Z,0.50
2018-12-15T17:30:54.256Z,0.50
2018-12-15T17:33:21.776Z,0.50
2018-12-15T17:35:49.294Z,0.40
2018-12-15T17:38:16.792Z,0.50
2018-12-15T17:40:44.335Z,0.50
2018-12-15T17:43:11.847Z,0.50
2018-12-15T17:45:39.825Z,0.50
2018-12-15T17:48:07.348Z,0.50
2018-12-15T17:50:34.909Z,0.50
2018-12-15T17:53:02.404Z,0.50
2018-12-15T17:55:30.036Z,0.50
2018-12-15T17:57:57.574Z,0.50
2018-12-15T18:00:25.106Z,0.50
2018-12-15T18:02:52.609Z,0.50
2018-12-15T18:05:20.120Z,0.50
2018-12-15T18:07:47.648Z,0.50
2018-12-15T18:10:15.180Z,0.50
2018-12-15T18:12:42.716Z,0.50
2018-12-15T18:15:10.358Z,0.50
2018-12-15T18:17:37.938Z,0.40
2018-12-15T18:20:06.703Z,0.40
2018-12-15T18:22:34.236Z,0.40
2018-12-15T18:25:01.743Z,0.40
2018-12-15T18:27:29.256Z,0.40
2018-12-15T18:29:56.778Z,0.40
2018-12-15T18:32:24.305Z,0.40
2018-12-15T18:34:51.833Z,0.50
2018-12-15T18:37:19.361Z,0.40
2018-12-15T18:39:46.887Z,0.50
2018-12-15T18:42:14.388Z,0.50
2018-12-15T18:44:41.951Z,0.50
2018-12-15T18:47:09.477Z,0.50
2018-12-15T18:49:37.021Z,0.50
2018-12-15T18:52:04.529Z,0.50
2018-12-15T18:54:32.050Z,0.50
2018-12-15T18:56:59.743Z,0.40
2018-12-15T18:59:27.385Z,0.40
2018-12-15T19:01:54.912Z,0.40
2018-12-15T19:04:22.430Z,0.40
2018-12-15T19:06:49.947Z,0.40
2018-12-15T19:09:17.476Z,0.40
2018-12-15T19:11:45.004Z,0.40
2018-12-15T19:14:12.548Z,0.40
2018-12-15T19:16:40.069Z,0.40
2018-12-15T19:19:07.568Z,0.50
2018-12-15T19:21:35.113Z,0.50
2018-12-15T19:24:02.744Z,0.50
2018-12-15T19:26:30.283Z,0.50
2018-12-15T19:28:57.789Z,0.50
2018-12-15T19:31:25.338Z,0.60
2018-12-15T19:33:52.845Z,0.50
2018-12-15T19:36:20.383Z,0.50
2018-12-15T19:38:48.505Z,0.50
2018-12-15T19:41:16.038Z,0.50
2018-12-15T19:43:43.552Z,0.50
2018-12-15T19:46:11.084Z,0.50
2018-12-15T19:48:38.637Z,0.60
2018-12-15T19:51:06.168Z,0.60
2018-12-15T19:53:33.668Z,0.60
2018-12-15T19:56:01.177Z,0.60
2018-12-15T19:58:28.688Z,0.60
2018-12-15T20:00:56.207Z,0.60
2018-12-15T20:03:23.709Z,0.70
2018-12-15T20:05:51.232Z,0.70
2018-12-15T20:08:18.741Z,0.70
2018-12-15T20:10:46.282Z,0.70
2018-12-15T20:13:13.812Z,0.70
2018-12-15T20:15:41.357Z,0.60
2018-12-15T20:18:08.898Z,0.70
2018-12-15T20:20:36.448Z,0.70
2018-12-15T20:23:03.964Z,0.70
2018-12-15T20:25:31.487Z,0.70
2018-12-15T20:27:59.001Z,0.70
2018-12-15T20:30:26.505Z,0.70
2018-12-15T20:32:54.025Z,0.70
2018-12-15T20:35:21.550Z,0.80
2018-12-15T20:37:49.080Z,0.80
2018-12-15T20:40:16.587Z,0.80
2018-12-15T20:42:44.129Z,0.80
2018-12-15T20:45:11.634Z,0.80
2018-12-15T20:47:39.442Z,0.80
2018-12-15T20:50:07.247Z,0.90
2018-12-15T20:52:34.786Z,0.80
2018-12-15T20:55:02.333Z,0.80
2018-12-15T20:57:29.832Z,0.80
2018-12-15T20:59:57.340Z,0.70
2018-12-15T21:02:25.511Z,0.70
2018-12-15T21:04:53.072Z,0.70
2018-12-15T21:07:20.577Z,0.70
2018-12-15T21:09:48.111Z,0.80
2018-12-15T21:12:15.675Z,0.90
2018-12-15T21:14:43.819Z,0.90
2018-12-15T21:17:11.391Z,0.80
2018-12-15T21:19:38.989Z,0.80
2018-12-15T21:22:09.657Z,0.80
2018-12-15T21:24:37.364Z,0.80
2018-12-15T21:27:05.643Z,0.80
2018-12-15T21:29:33.180Z,0.70
2018-12-15T21:32:00.699Z,0.70
2018-12-15T21:34:28.235Z,0.70
2018-12-15T21:36:55.776Z,0.70
2018-12-15T21:39:23.300Z,0.80
2018-12-15T21:41:50.844Z,0.80
2018-12-15T21:44:18.365Z,0.80
2018-12-15T21:46:45.873Z,0.90
2018-12-15T21:49:13.412Z,0.90
2018-12-15T21:51:40.938Z,0.80
2018-12-15T21:54:08.459Z,0.90
2018-12-15T21:56:35.957Z,0.90
2018-12-15T21:59:03.544Z,0.90
2018-12-15T22:01:31.046Z,0.90
2018-12-15T22:03:58.556Z,0.90
2018-12-15T22:06:26.062Z,0.90
2018-12-15T22:08:53.572Z,0.90
2018-12-15T22:11:21.096Z,0.90
2018-12-15T22:13:48.689Z,0.90
2018-12-15T22:16:16.207Z,0.80
2018-12-15T22:18:43.735Z,0.90
2018-12-15T22:21:11.243Z,0.80
2018-12-15T22:23:38.754Z,0.90
2018-12-15T22:26:06.265Z,0.80
2018-12-15T22:28:33.789Z,0.80
2018-12-15T22:31:01.318Z,0.80
2018-12-15T22:33:28.829Z,0.80
2018-12-15T22:35:56.336Z,0.80
2018-12-15T22:38:23.875Z,0.90
2018-12-15T22:40:51.409Z,0.80
2018-12-15T22:43:18.931Z,0.80
2018-12-15T22:45:46.458Z,0.90
2018-12-15T22:48:13.997Z,0.90
2018-12-15T22:50:41.519Z,0.90
2018-12-15T22:53:09.016Z,1.00
2018-12-15T22:55:36.537Z,0.90
2018-12-15T22:58:04.037Z,0.90
2018-12-15T23:00:33.547Z,0.90
2018-12-15T23:03:01.051Z,0.90
2018-12-15T23:05:28.590Z,0.90
2018-12-15T23:07:56.123Z,0.90
2018-12-15T23:10:23.664Z,0.90
2018-12-15T23:12:51.208Z,0.90
2018-12-15T23:15:18.717Z,0.90
2018-12-15T23:17:46.232Z,0.90
2018-12-15T23:20:13.738Z,0.80
2018-12-15T23:22:41.269Z,0.80
2018-12-15T23:25:08.773Z,0.70
2018-12-15T23:27:36.298Z,0.70
2018-12-15T23:30:05.575Z,0.80
2018-12-15T23:32:33.440Z,0.80
2018-12-15T23:35:00.956Z,0.70
2018-12-15T23:37:28.481Z,0.70
2018-12-15T23:39:56.026Z,0.70
2018-12-15T23:42:23.551Z,0.70
2018-12-15T23:44:51.075Z,0.70
2018-12-15T23:47:18.604Z,0.70
2018-12-15T23:49:46.125Z,0.80
2018-12-15T23:52:13.661Z,0.80
2018-12-15T23:54:41.157Z,0.80
2018-12-15T23:57:08.701Z,0.80
2018-12-15T23:59:36.222Z,0.80
